createdAt,value
2022-11-16T00:00:07.471Z,94318.00
2022-11-16T00:00:17.210Z,94318.00
2022-11-16T00:00:27.430Z,94315.00
2022-11-16T00:00:37.331Z,94318.00
2022-11-16T00:00:47.430Z,94321.00
2022-11-16T00:00:57.359Z,94319.00
2022-11-16T00:01:07.417Z,94316.00
2022-11-16T00:01:17.235Z,94318.00
2022-11-16T00:01:27.320Z,94317.00
2022-11-16T00:01:37.349Z,94319.00
2022-11-16T00:01:47.447Z,94315.00
2022-11-16T00:01:57.433Z,94316.00
2022-11-16T00:02:07.329Z,94313.00
2022-11-16T00:02:17.289Z,94317.00
2022-11-16T00:02:27.471Z,94314.00
2022-11-16T00:02:37.558Z,94314.00
2022-11-16T00:02:47.287Z,94312.00
2022-11-16T00:02:57.438Z,94314.00
2022-11-16T00:03:07.153Z,94315.00
2022-11-16T00:03:17.390Z,94313.00
2022-11-16T00:03:27.459Z,94312.00
2022-11-16T00:03:37.367Z,94313.00
2022-11-16T00:03:47.236Z,94315.00
2022-11-16T00:03:57.198Z,94314.00
2022-11-16T00:04:07.554Z,94314.00
2022-11-16T00:04:17.261Z,94312.00
2022-11-16T00:04:27.387Z,94314.00
2022-11-16T00:04:37.308Z,94315.00
2022-11-16T00:04:47.280Z,94314.00
2022-11-16T00:04:57.250Z,94313.00
2022-11-16T00:05:07.446Z,94313.00
2022-11-16T00:05:17.413Z,94315.00
2022-11-16T00:05:28.630Z,94314.00
2022-11-16T00:05:37.264Z,94314.00
2022-11-16T00:05:47.462Z,94311.00
2022-11-16T00:05:57.312Z,94314.00
2022-11-16T00:06:07.233Z,94312.00
2022-11-16T00:06:17.274Z,94315.00
2022-11-16T00:06:27.404Z,94312.00
2022-11-16T00:06:37.249Z,94316.00
2022-11-16T00:06:47.436Z,94314.00
2022-11-16T00:06:57.425Z,94312.00
2022-11-16T00:07:07.226Z,94316.00
2022-11-16T00:07:17.519Z,94312.00
2022-11-16T00:07:27.394Z,94313.00
2022-11-16T00:07:37.415Z,94310.00
2022-11-16T00:07:47.335Z,94311.00
2022-11-16T00:07:57.317Z,94307.00
2022-11-16T00:08:07.293Z,94312.00
2022-11-16T00:08:17.205Z,94311.00
2022-11-16T00:08:27.443Z,94310.00
2022-11-16T00:08:37.347Z,94310.00
2022-11-16T00:08:47.283Z,94307.00
2022-11-16T00:08:57.341Z,94305.00
2022-11-16T00:09:07.209Z,94306.00
2022-11-16T00:09:17.422Z,94305.00
2022-11-16T00:09:27.357Z,94304.00
2022-11-16T00:09:37.364Z,94307.00
2022-11-16T00:09:47.295Z,94305.00
2022-11-16T00:09:57.192Z,94308.00
2022-11-16T00:10:07.259Z,94305.00
2022-11-16T00:10:17.160Z,94305.00
2022-11-16T00:10:27.274Z,94304.00
2022-11-16T00:10:37.217Z,94303.00
2022-11-16T00:10:47.312Z,94302.00
2022-11-16T00:10:57.502Z,94303.00
2022-11-16T00:11:07.273Z,94303.00
2022-11-16T00:11:17.223Z,94296.00
2022-11-16T00:11:27.355Z,94299.00
2022-11-16T00:11:37.171Z,94299.00
2022-11-16T00:11:47.469Z,94298.00
2022-11-16T00:11:57.332Z,94299.00
2022-11-16T00:12:07.403Z,94297.00
2022-11-16T00:12:17.234Z,94298.00
2022-11-16T00:12:27.424Z,94297.00
2022-11-16T00:12:37.341Z,94297.00
2022-11-16T00:12:47.186Z,94295.00
2022-11-16T00:12:57.316Z,94293.00
2022-11-16T00:13:07.402Z,94291.00
2022-11-16T00:13:17.368Z,94294.00
2022-11-16T00:13:27.301Z,94292.00
2022-11-16T00:13:37.202Z,94290.00
2022-11-16T00:13:47.291Z,94291.00
2022-11-16T00:13:57.343Z,94289.00
2022-11-16T00:14:07.179Z,94286.00
2022-11-16T00:14:17.324Z,94289.00
2022-11-16T00:14:27.319Z,94286.00
2022-11-16T00:14:37.438Z,94282.00
2022-11-16T00:14:47.300Z,94284.00
2022-11-16T00:14:57.351Z,94284.00
2022-11-16T00:15:07.408Z,94282.00
2022-11-16T00:15:17.172Z,94277.00
2022-11-16T00:15:27.386Z,94279.00
2022-11-16T00:15:37.389Z,94276.00
2022-11-16T00:15:47.446Z,94281.00
2022-11-16T00:15:57.443Z,94283.00
2022-11-16T00:16:07.188Z,94280.00
2022-11-16T00:16:17.272Z,94277.00
2022-11-16T00:16:27.344Z,94278.00
2022-11-16T00:16:37.471Z,94279.00
2022-11-16T00:16:47.334Z,94277.00
2022-11-16T00:16:57.444Z,94275.00
2022-11-16T00:17:07.384Z,94274.00
2022-11-16T00:17:17.187Z,94273.00
2022-11-16T00:17:27.374Z,94275.00
2022-11-16T00:17:37.209Z,94271.00
2022-11-16T00:17:47.347Z,94274.00
2022-11-16T00:17:57.347Z,94270.00
2022-11-16T00:18:07.202Z,94270.00
2022-11-16T00:18:17.322Z,94269.00
2022-11-16T00:18:27.332Z,94272.00
2022-11-16T00:18:37.394Z,94271.00
2022-11-16T00:18:47.450Z,94269.00
2022-11-16T00:18:57.180Z,94273.00
2022-11-16T00:19:07.221Z,94269.00
2022-11-16T00:19:17.339Z,94268.00
2022-11-16T00:19:27.173Z,94268.00
2022-11-16T00:19:37.335Z,94264.00
2022-11-16T00:19:47.166Z,94262.00
2022-11-16T00:19:57.286Z,94262.00
2022-11-16T00:20:07.356Z,94259.00
2022-11-16T00:20:17.278Z,94262.00
2022-11-16T00:20:27.311Z,94263.00
2022-11-16T00:20:37.409Z,94258.00
2022-11-16T00:20:47.231Z,94262.00
2022-11-16T00:20:57.292Z,94260.00
2022-11-16T00:21:07.451Z,94259.00
2022-11-16T00:21:17.433Z,94263.00
2022-11-16T00:21:27.256Z,94257.00
2022-11-16T00:21:37.354Z,94258.00
2022-11-16T00:21:47.406Z,94259.00
2022-11-16T00:21:57.310Z,94261.00
2022-11-16T00:22:07.385Z,94259.00
2022-11-16T00:22:17.408Z,94258.00
2022-11-16T00:22:27.247Z,94257.00
2022-11-16T00:22:37.259Z,94253.00
2022-11-16T00:22:47.184Z,94257.00
2022-11-16T00:22:57.302Z,94254.00
2022-11-16T00:23:07.370Z,94254.00
2022-11-16T00:23:17.451Z,94255.00
2022-11-16T00:23:27.340Z,94254.00
2022-11-16T00:23:37.228Z,94250.00
2022-11-16T00:23:47.217Z,94253.00
2022-11-16T00:23:57.194Z,94252.00
2022-11-16T00:24:07.441Z,94248.00
2022-11-16T00:24:17.164Z,94250.00
2022-11-16T00:24:27.220Z,94251.00
2022-11-16T00:24:37.339Z,94252.00
2022-11-16T00:24:47.320Z,94250.00
2022-11-16T00:24:57.283Z,94250.00
2022-11-16T00:25:07.469Z,94249.00
2022-11-16T00:25:17.446Z,94251.00
2022-11-16T00:25:27.439Z,94250.00
2022-11-16T00:25:37.245Z,94250.00
2022-11-16T00:25:47.232Z,94251.00
2022-11-16T00:25:57.216Z,94252.00
2022-11-16T00:26:07.289Z,94251.00
2022-11-16T00:26:17.332Z,94247.00
2022-11-16T00:26:27.413Z,94249.00
2022-11-16T00:26:37.288Z,94248.00
2022-11-16T00:26:47.247Z,94250.00
2022-11-16T00:26:57.358Z,94248.00
2022-11-16T00:27:07.243Z,94246.00
2022-11-16T00:27:17.400Z,94246.00
2022-11-16T00:27:27.476Z,94250.00
2022-11-16T00:27:37.428Z,94250.00
2022-11-16T00:27:47.211Z,94247.00
2022-11-16T00:27:57.256Z,94248.00
2022-11-16T00:28:07.296Z,94249.00
2022-11-16T00:28:17.268Z,94253.00
2022-11-16T00:28:27.312Z,94246.00
2022-11-16T00:28:37.302Z,94248.00
2022-11-16T00:28:47.468Z,94249.00
2022-11-16T00:28:57.344Z,94247.00
2022-11-16T00:29:07.289Z,94251.00
2022-11-16T00:29:17.411Z,94251.00
2022-11-16T00:29:27.254Z,94249.00
2022-11-16T00:29:37.372Z,94248.00
2022-11-16T00:29:47.181Z,94248.00
2022-11-16T00:29:57.219Z,94249.00
2022-11-16T00:30:07.238Z,94247.00
2022-11-16T00:30:17.372Z,94249.00
2022-11-16T00:30:27.214Z,94252.00
2022-11-16T00:30:37.262Z,94246.00
2022-11-16T00:30:47.227Z,94248.00
2022-11-16T00:30:57.381Z,94250.00
2022-11-16T00:31:07.401Z,94248.00
2022-11-16T00:31:17.281Z,94250.00
2022-11-16T00:31:27.216Z,94248.00
2022-11-16T00:31:37.304Z,94250.00
2022-11-16T00:31:47.172Z,94253.00
2022-11-16T00:31:57.426Z,94255.00
2022-11-16T00:32:07.240Z,94252.00
2022-11-16T00:32:17.326Z,94253.00
2022-11-16T00:32:27.387Z,94253.00
2022-11-16T00:32:37.384Z,94253.00
2022-11-16T00:32:47.271Z,94253.00
2022-11-16T00:32:57.216Z,94253.00
2022-11-16T00:33:07.308Z,94258.00
2022-11-16T00:33:17.414Z,94254.00
2022-11-16T00:33:27.194Z,94256.00
2022-11-16T00:33:37.367Z,94252.00
2022-11-16T00:33:47.232Z,94255.00
2022-11-16T00:33:57.236Z,94256.00
2022-11-16T00:34:07.470Z,94256.00
2022-11-16T00:34:17.241Z,94255.00
2022-11-16T00:34:27.397Z,94254.00
2022-11-16T00:34:37.297Z,94257.00
2022-11-16T00:34:47.403Z,94259.00
2022-11-16T00:34:57.372Z,94258.00
2022-11-16T00:35:07.246Z,94261.00
2022-11-16T00:35:17.358Z,94260.00
2022-11-16T00:35:27.297Z,94261.00
2022-11-16T00:35:37.405Z,94261.00
2022-11-16T00:35:47.341Z,94259.00
2022-11-16T00:35:57.182Z,94261.00
2022-11-16T00:36:07.165Z,94259.00
2022-11-16T00:36:17.275Z,94260.00
2022-11-16T00:36:27.617Z,94260.00
2022-11-16T00:36:37.274Z,94259.00
2022-11-16T00:36:47.270Z,94261.00
2022-11-16T00:36:57.486Z,94265.00
2022-11-16T00:37:07.282Z,94267.00
2022-11-16T00:37:17.291Z,94262.00
2022-11-16T00:37:27.459Z,94266.00
2022-11-16T00:37:37.281Z,94265.00
2022-11-16T00:37:47.233Z,94267.00
2022-11-16T00:37:57.342Z,94267.00
2022-11-16T00:38:07.347Z,94269.00
2022-11-16T00:38:17.468Z,94270.00
2022-11-16T00:38:27.241Z,94271.00
2022-11-16T00:38:37.367Z,94270.00
2022-11-16T00:38:47.300Z,94269.00
2022-11-16T00:38:57.198Z,94267.00
2022-11-16T00:39:07.401Z,94272.00
2022-11-16T00:39:17.333Z,94270.00
2022-11-16T00:39:27.398Z,94270.00
2022-11-16T00:39:37.257Z,94271.00
2022-11-16T00:39:47.265Z,94273.00
2022-11-16T00:39:57.357Z,94268.00
2022-11-16T00:40:07.439Z,94267.00
2022-11-16T00:40:17.391Z,94270.00
2022-11-16T00:40:27.192Z,94271.00
2022-11-16T00:40:37.328Z,94272.00
2022-11-16T00:40:47.408Z,94271.00
2022-11-16T00:40:57.442Z,94271.00
2022-11-16T00:41:07.410Z,94272.00
2022-11-16T00:41:17.185Z,94270.00
2022-11-16T00:41:27.380Z,94270.00
2022-11-16T00:41:37.249Z,94272.00
2022-11-16T00:41:47.217Z,94273.00
2022-11-16T00:41:57.240Z,94274.00
2022-11-16T00:42:07.414Z,94274.00
2022-11-16T00:42:17.324Z,94279.00
2022-11-16T00:42:27.490Z,94275.00
2022-11-16T00:42:37.438Z,94272.00
2022-11-16T00:42:47.399Z,94280.00
2022-11-16T00:42:57.236Z,94274.00
2022-11-16T00:43:07.151Z,94274.00
2022-11-16T00:43:17.161Z,94277.00
2022-11-16T00:43:27.173Z,94275.00
2022-11-16T00:43:37.355Z,94279.00
2022-11-16T00:43:47.405Z,94276.00
2022-11-16T00:43:57.190Z,94278.00
2022-11-16T00:44:07.227Z,94272.00
2022-11-16T00:44:17.330Z,94277.00
2022-11-16T00:44:27.318Z,94278.00
2022-11-16T00:44:37.409Z,94279.00
2022-11-16T00:44:47.429Z,94280.00
2022-11-16T00:44:57.403Z,94282.00
2022-11-16T00:45:07.446Z,94282.00
2022-11-16T00:45:17.306Z,94280.00
2022-11-16T00:45:27.292Z,94284.00
2022-11-16T00:45:37.341Z,94284.00
2022-11-16T00:45:47.335Z,94280.00
2022-11-16T00:45:57.464Z,94279.00
2022-11-16T00:46:07.452Z,94281.00
2022-11-16T00:46:17.445Z,94280.00
2022-11-16T00:46:27.412Z,94281.00
2022-11-16T00:46:37.440Z,94283.00
2022-11-16T00:46:47.199Z,94279.00
2022-11-16T00:46:57.321Z,94281.00
2022-11-16T00:47:07.319Z,94282.00
2022-11-16T00:47:17.177Z,94281.00
2022-11-16T00:47:27.310Z,94277.00
2022-11-16T00:47:37.250Z,94277.00
2022-11-16T00:47:47.409Z,94278.00
2022-11-16T00:48:00.416Z,94278.00
2022-11-16T00:48:07.166Z,94278.00
2022-11-16T00:48:17.432Z,94279.00
2022-11-16T00:48:27.390Z,94279.00
2022-11-16T00:48:37.164Z,94279.00
2022-11-16T00:48:47.438Z,94277.00
2022-11-16T00:48:57.393Z,94278.00
2022-11-16T00:49:07.330Z,94275.00
2022-11-16T00:49:17.606Z,94278.00
2022-11-16T00:49:27.255Z,94278.00
2022-11-16T00:49:37.329Z,94273.00
2022-11-16T00:49:47.312Z,94275.00
2022-11-16T00:49:57.308Z,94276.00
2022-11-16T00:50:07.256Z,94274.00
2022-11-16T00:50:17.414Z,94270.00
2022-11-16T00:50:27.414Z,94271.00
2022-11-16T00:50:37.387Z,94275.00
2022-11-16T00:50:47.360Z,94275.00
2022-11-16T00:50:57.166Z,94273.00
2022-11-16T00:51:07.177Z,94272.00
2022-11-16T00:51:17.379Z,94276.00
2022-11-16T00:51:27.301Z,94274.00
2022-11-16T00:51:37.247Z,94272.00
2022-11-16T00:51:47.227Z,94273.00
2022-11-16T00:51:57.309Z,94272.00
2022-11-16T00:52:07.292Z,94276.00
2022-11-16T00:52:17.325Z,94273.00
2022-11-16T00:52:27.275Z,94275.00
2022-11-16T00:52:37.211Z,94277.00
2022-11-16T00:52:47.334Z,94274.00
2022-11-16T00:52:57.385Z,94277.00
2022-11-16T00:53:07.273Z,94276.00
2022-11-16T00:53:17.302Z,94273.00
2022-11-16T00:53:27.330Z,94276.00
2022-11-16T00:53:37.400Z,94277.00
2022-11-16T00:53:47.194Z,94277.00
2022-11-16T00:53:57.172Z,94282.00
2022-11-16T00:54:07.333Z,94280.00
2022-11-16T00:54:17.231Z,94277.00
2022-11-16T00:54:27.248Z,94282.00
2022-11-16T00:54:37.250Z,94279.00
2022-11-16T00:54:47.276Z,94282.00
2022-11-16T00:54:57.417Z,94280.00
2022-11-16T00:55:07.247Z,94281.00
2022-11-16T00:55:17.470Z,94280.00
2022-11-16T00:55:27.342Z,94279.00
2022-11-16T00:55:37.275Z,94281.00
2022-11-16T00:55:47.392Z,94284.00
2022-11-16T00:55:57.215Z,94286.00
2022-11-16T00:56:07.273Z,94286.00
2022-11-16T00:56:17.188Z,94288.00
2022-11-16T00:56:27.342Z,94287.00
2022-11-16T00:56:37.306Z,94288.00
2022-11-16T00:56:47.270Z,94287.00
2022-11-16T00:56:57.259Z,94287.00
2022-11-16T00:57:07.380Z,94290.00
2022-11-16T00:57:17.382Z,94285.00
2022-11-16T00:57:27.323Z,94289.00
2022-11-16T00:57:37.341Z,94291.00
2022-11-16T00:57:47.259Z,94290.00
2022-11-16T00:57:57.436Z,94288.00
2022-11-16T00:58:07.164Z,94288.00
2022-11-16T00:58:17.216Z,94288.00
2022-11-16T00:58:27.427Z,94289.00
2022-11-16T00:58:37.349Z,94292.00
2022-11-16T00:58:47.425Z,94293.00
2022-11-16T00:58:57.166Z,94292.00
2022-11-16T00:59:07.346Z,94290.00
2022-11-16T00:59:17.298Z,94292.00
2022-11-16T00:59:27.416Z,94290.00
2022-11-16T00:59:37.256Z,94292.00
2022-11-16T00:59:47.263Z,94293.00
2022-11-16T00:59:57.479Z,94293.00
2022-11-16T01:00:07.407Z,94289.00
2022-11-16T01:00:17.276Z,94290.00
2022-11-16T01:00:27.426Z,94293.00
2022-11-16T01:00:37.476Z,94292.00
2022-11-16T01:00:47.431Z,94292.00
2022-11-16T01:00:57.423Z,94290.00
2022-11-16T01:01:07.356Z,94291.00
2022-11-16T01:01:17.266Z,94290.00
2022-11-16T01:01:27.200Z,94290.00
2022-11-16T01:01:37.354Z,94289.00
2022-11-16T01:01:47.247Z,94292.00
2022-11-16T01:01:57.412Z,94294.00
2022-11-16T01:02:07.170Z,94295.00
2022-11-16T01:02:17.348Z,94292.00
2022-11-16T01:02:27.446Z,94290.00
2022-11-16T01:02:37.284Z,94291.00
2022-11-16T01:02:47.383Z,94290.00
2022-11-16T01:02:57.442Z,94290.00
2022-11-16T01:03:07.386Z,94290.00
2022-11-16T01:03:17.347Z,94290.00
2022-11-16T01:03:27.246Z,94290.00
2022-11-16T01:03:37.479Z,94290.00
2022-11-16T01:03:47.446Z,94289.00
2022-11-16T01:03:57.248Z,94289.00
2022-11-16T01:04:07.187Z,94293.00
2022-11-16T01:04:17.356Z,94289.00
2022-11-16T01:04:27.243Z,94296.00
2022-11-16T01:04:37.368Z,94294.00
2022-11-16T01:04:47.397Z,94292.00
2022-11-16T01:04:57.226Z,94293.00
2022-11-16T01:05:07.380Z,94295.00
2022-11-16T01:05:17.484Z,94293.00
2022-11-16T01:05:27.280Z,94295.00
2022-11-16T01:05:37.303Z,94297.00
2022-11-16T01:05:47.174Z,94297.00
2022-11-16T01:05:57.313Z,94293.00
2022-11-16T01:06:07.247Z,94295.00
2022-11-16T01:06:17.399Z,94295.00
2022-11-16T01:06:27.443Z,94297.00
2022-11-16T01:06:37.449Z,94293.00
2022-11-16T01:06:47.355Z,94297.00
2022-11-16T01:06:57.298Z,94298.00
2022-11-16T01:07:07.361Z,94296.00
2022-11-16T01:07:17.495Z,94298.00
2022-11-16T01:07:27.305Z,94296.00
2022-11-16T01:07:37.296Z,94298.00
2022-11-16T01:07:47.352Z,94299.00
2022-11-16T01:07:57.272Z,94297.00
2022-11-16T01:08:07.434Z,94298.00
2022-11-16T01:08:17.417Z,94298.00
2022-11-16T01:08:27.446Z,94295.00
2022-11-16T01:08:37.299Z,94295.00
2022-11-16T01:08:47.168Z,94298.00
2022-11-16T01:08:57.338Z,94300.00
2022-11-16T01:09:07.211Z,94300.00
2022-11-16T01:09:17.192Z,94297.00
2022-11-16T01:09:27.207Z,94296.00
2022-11-16T01:09:37.347Z,94300.00
2022-11-16T01:09:47.441Z,94299.00
2022-11-16T01:09:57.375Z,94298.00
2022-11-16T01:10:07.439Z,94301.00
2022-11-16T01:10:17.321Z,94299.00
2022-11-16T01:10:27.271Z,94296.00
2022-11-16T01:10:37.391Z,94298.00
2022-11-16T01:10:47.213Z,94299.00
2022-11-16T01:10:57.369Z,94299.00
2022-11-16T01:11:07.311Z,94298.00
2022-11-16T01:11:17.337Z,94295.00
2022-11-16T01:11:27.200Z,94301.00
2022-11-16T01:11:37.482Z,94301.00
2022-11-16T01:11:47.252Z,94300.00
2022-11-16T01:11:57.182Z,94299.00
2022-11-16T01:12:07.166Z,94295.00
2022-11-16T01:12:17.179Z,94293.00
2022-11-16T01:12:27.345Z,94296.00
2022-11-16T01:12:37.239Z,94298.00
2022-11-16T01:12:47.229Z,94297.00
2022-11-16T01:12:57.269Z,94294.00
2022-11-16T01:13:07.402Z,94292.00
2022-11-16T01:13:17.394Z,94296.00
2022-11-16T01:13:27.209Z,94293.00
2022-11-16T01:13:37.301Z,94293.00
2022-11-16T01:13:47.376Z,94290.00
2022-11-16T01:13:57.298Z,94294.00
2022-11-16T01:14:07.376Z,94294.00
2022-11-16T01:14:17.389Z,94291.00
2022-11-16T01:14:27.165Z,94292.00
2022-11-16T01:14:37.446Z,94294.00
2022-11-16T01:14:47.377Z,94296.00
2022-11-16T01:14:57.223Z,94293.00
2022-11-16T01:15:07.241Z,94293.00
2022-11-16T01:15:17.269Z,94292.00
2022-11-16T01:15:27.298Z,94290.00
2022-11-16T01:15:37.283Z,94288.00
2022-11-16T01:15:47.373Z,94289.00
2022-11-16T01:15:57.324Z,94293.00
2022-11-16T01:16:07.171Z,94290.00
2022-11-16T01:16:17.457Z,94287.00
2022-11-16T01:16:27.399Z,94287.00
2022-11-16T01:16:37.526Z,94286.00
2022-11-16T01:16:47.165Z,94290.00
2022-11-16T01:16:57.414Z,94289.00
2022-11-16T01:17:07.286Z,94291.00
2022-11-16T01:17:17.370Z,94292.00
2022-11-16T01:17:27.220Z,94289.00
2022-11-16T01:17:37.190Z,94288.00
2022-11-16T01:17:47.341Z,94290.00
2022-11-16T01:17:57.215Z,94291.00
2022-11-16T01:18:07.329Z,94289.00
2022-11-16T01:18:17.194Z,94286.00
2022-11-16T01:18:27.164Z,94288.00
2022-11-16T01:18:37.413Z,94288.00
2022-11-16T01:18:47.417Z,94285.00
2022-11-16T01:18:57.158Z,94283.00
2022-11-16T01:19:07.406Z,94283.00
2022-11-16T01:19:17.336Z,94285.00
2022-11-16T01:19:27.268Z,94287.00
2022-11-16T01:19:37.445Z,94282.00
2022-11-16T01:19:47.192Z,94283.00
2022-11-16T01:19:57.356Z,94286.00
2022-11-16T01:20:07.244Z,94282.00
2022-11-16T01:20:17.218Z,94280.00
2022-11-16T01:20:27.407Z,94281.00
2022-11-16T01:20:37.422Z,94280.00
2022-11-16T01:20:47.164Z,94282.00
2022-11-16T01:20:57.315Z,94280.00
2022-11-16T01:21:07.376Z,94278.00
2022-11-16T01:21:17.412Z,94282.00
2022-11-16T01:21:27.408Z,94281.00
2022-11-16T01:21:37.303Z,94279.00
2022-11-16T01:21:47.337Z,94276.00
2022-11-16T01:21:57.193Z,94276.00
2022-11-16T01:22:07.248Z,94278.00
2022-11-16T01:22:17.332Z,94276.00
2022-11-16T01:22:27.462Z,94281.00
2022-11-16T01:22:37.309Z,94280.00
2022-11-16T01:22:47.214Z,94277.00
2022-11-16T01:22:57.286Z,94274.00
2022-11-16T01:23:07.350Z,94279.00
2022-11-16T01:23:17.454Z,94276.00
2022-11-16T01:23:27.379Z,94276.00
2022-11-16T01:23:37.429Z,94276.00
2022-11-16T01:23:47.358Z,94275.00
2022-11-16T01:23:57.432Z,94274.00
2022-11-16T01:24:07.377Z,94275.00
2022-11-16T01:24:17.289Z,94274.00
2022-11-16T01:24:27.320Z,94275.00
2022-11-16T01:24:37.435Z,94277.00
2022-11-16T01:24:47.268Z,94272.00
2022-11-16T01:24:57.299Z,94272.00
2022-11-16T01:25:07.281Z,94272.00
2022-11-16T01:25:17.238Z,94273.00
2022-11-16T01:25:27.159Z,94272.00
2022-11-16T01:25:37.455Z,94273.00
2022-11-16T01:25:47.157Z,94274.00
2022-11-16T01:25:57.371Z,94273.00
2022-11-16T01:26:07.292Z,94272.00
2022-11-16T01:26:17.312Z,94269.00
2022-11-16T01:26:27.164Z,94268.00
2022-11-16T01:26:37.265Z,94266.00
2022-11-16T01:26:47.335Z,94269.00
2022-11-16T01:26:57.189Z,94270.00
2022-11-16T01:27:07.341Z,94273.00
2022-11-16T01:27:17.409Z,94270.00
2022-11-16T01:27:27.442Z,94270.00
2022-11-16T01:27:37.230Z,94269.00
2022-11-16T01:27:47.256Z,94267.00
2022-11-16T01:27:57.219Z,94267.00
2022-11-16T01:28:07.252Z,94265.00
2022-11-16T01:28:17.151Z,94266.00
2022-11-16T01:28:27.195Z,94264.00
2022-11-16T01:28:37.380Z,94265.00
2022-11-16T01:28:47.439Z,94262.00
2022-11-16T01:28:57.195Z,94262.00
2022-11-16T01:29:07.353Z,94264.00
2022-11-16T01:29:17.160Z,94262.00
2022-11-16T01:29:27.290Z,94257.00
2022-11-16T01:29:37.362Z,94258.00
2022-11-16T01:29:47.381Z,94262.00
2022-11-16T01:29:57.233Z,94259.00
2022-11-16T01:30:07.170Z,94257.00
2022-11-16T01:30:17.396Z,94257.00
2022-11-16T01:30:27.243Z,94257.00
2022-11-16T01:30:37.204Z,94256.00
2022-11-16T01:30:47.215Z,94253.00
2022-11-16T01:30:57.243Z,94254.00
2022-11-16T01:31:07.398Z,94257.00
2022-11-16T01:31:17.217Z,94255.00
2022-11-16T01:31:27.235Z,94253.00
2022-11-16T01:31:37.264Z,94255.00
2022-11-16T01:31:47.349Z,94253.00
2022-11-16T01:31:57.281Z,94252.00
2022-11-16T01:32:07.364Z,94252.00
2022-11-16T01:32:17.326Z,94251.00
2022-11-16T01:32:27.222Z,94249.00
2022-11-16T01:32:37.419Z,94248.00
2022-11-16T01:32:47.407Z,94249.00
2022-11-16T01:32:57.208Z,94248.00
2022-11-16T01:33:07.180Z,94247.00
2022-11-16T01:33:17.258Z,94248.00
2022-11-16T01:33:27.234Z,94248.00
2022-11-16T01:33:37.278Z,94246.00
2022-11-16T01:33:47.391Z,94248.00
2022-11-16T01:33:57.214Z,94246.00
2022-11-16T01:34:07.356Z,94244.00
2022-11-16T01:34:17.370Z,94248.00
2022-11-16T01:34:27.442Z,94245.00
2022-11-16T01:34:37.365Z,94242.00
2022-11-16T01:34:47.358Z,94240.00
2022-11-16T01:34:57.202Z,94240.00
2022-11-16T01:35:07.368Z,94238.00
2022-11-16T01:35:17.326Z,94239.00
2022-11-16T01:35:27.413Z,94235.00
2022-11-16T01:35:37.320Z,94237.00
2022-11-16T01:35:47.204Z,94240.00
2022-11-16T01:35:57.381Z,94237.00
2022-11-16T01:36:07.197Z,94238.00
2022-11-16T01:36:17.248Z,94239.00
2022-11-16T01:36:27.357Z,94238.00
2022-11-16T01:36:37.311Z,94238.00
2022-11-16T01:36:47.161Z,94239.00
2022-11-16T01:36:57.324Z,94238.00
2022-11-16T01:37:07.244Z,94239.00
2022-11-16T01:37:17.249Z,94240.00
2022-11-16T01:37:27.229Z,94238.00
2022-11-16T01:37:37.314Z,94238.00
2022-11-16T01:37:47.309Z,94235.00
2022-11-16T01:37:57.407Z,94238.00
2022-11-16T01:38:07.189Z,94237.00
2022-11-16T01:38:17.177Z,94239.00
2022-11-16T01:38:29.925Z,94235.00
2022-11-16T01:38:37.338Z,94237.00
2022-11-16T01:38:47.180Z,94238.00
2022-11-16T01:38:57.201Z,94235.00
2022-11-16T01:39:07.374Z,94234.00
2022-11-16T01:39:17.385Z,94236.00
2022-11-16T01:39:27.223Z,94232.00
2022-11-16T01:39:37.431Z,94232.00
2022-11-16T01:39:47.280Z,94234.00
2022-11-16T01:39:57.321Z,94235.00
2022-11-16T01:40:07.329Z,94229.00
2022-11-16T01:40:17.363Z,94234.00
2022-11-16T01:40:27.411Z,94236.00
2022-11-16T01:40:37.287Z,94234.00
2022-11-16T01:40:47.201Z,94236.00
2022-11-16T01:40:57.355Z,94239.00
2022-11-16T01:41:07.284Z,94235.00
2022-11-16T01:41:17.203Z,94240.00
2022-11-16T01:41:27.238Z,94237.00
2022-11-16T01:41:37.265Z,94239.00
2022-11-16T01:41:47.362Z,94241.00
2022-11-16T01:41:57.184Z,94235.00
2022-11-16T01:42:07.350Z,94240.00
2022-11-16T01:42:17.427Z,94240.00
2022-11-16T01:42:27.375Z,94240.00
2022-11-16T01:42:37.470Z,94241.00
2022-11-16T01:42:47.413Z,94236.00
2022-11-16T01:42:57.356Z,94239.00
2022-11-16T01:43:07.180Z,94240.00
2022-11-16T01:43:17.449Z,94240.00
2022-11-16T01:43:27.196Z,94242.00
2022-11-16T01:43:37.377Z,94237.00
2022-11-16T01:43:47.403Z,94244.00
2022-11-16T01:43:57.302Z,94241.00
2022-11-16T01:44:07.228Z,94243.00
2022-11-16T01:44:17.229Z,94243.00
2022-11-16T01:44:27.290Z,94245.00
2022-11-16T01:44:37.399Z,94246.00
2022-11-16T01:44:47.263Z,94245.00
2022-11-16T01:44:57.206Z,94242.00
2022-11-16T01:45:07.407Z,94246.00
2022-11-16T01:45:17.381Z,94244.00
2022-11-16T01:45:27.353Z,94248.00
2022-11-16T01:45:37.315Z,94243.00
2022-11-16T01:45:47.421Z,94246.00
2022-11-16T01:45:57.150Z,94246.00
2022-11-16T01:46:07.423Z,94246.00
2022-11-16T01:46:17.349Z,94245.00
2022-11-16T01:46:27.445Z,94243.00
2022-11-16T01:46:37.347Z,94243.00
2022-11-16T01:46:47.315Z,94245.00
2022-11-16T01:46:57.354Z,94243.00
2022-11-16T01:47:07.305Z,94243.00
2022-11-16T01:47:17.459Z,94244.00
2022-11-16T01:47:27.391Z,94246.00
2022-11-16T01:47:37.425Z,94246.00
2022-11-16T01:47:47.431Z,94247.00
2022-11-16T01:47:57.431Z,94247.00
2022-11-16T01:48:07.404Z,94244.00
2022-11-16T01:48:17.471Z,94245.00
2022-11-16T01:48:27.528Z,94247.00
2022-11-16T01:48:37.792Z,94245.00
2022-11-16T01:48:47.457Z,94243.00
2022-11-16T01:48:57.258Z,94246.00
2022-11-16T01:49:07.311Z,94242.00
2022-11-16T01:49:17.370Z,94245.00
2022-11-16T01:49:27.255Z,94246.00
2022-11-16T01:49:37.387Z,94247.00
2022-11-16T01:49:47.364Z,94245.00
2022-11-16T01:49:57.300Z,94245.00
2022-11-16T01:50:07.187Z,94245.00
2022-11-16T01:50:17.254Z,94246.00
2022-11-16T01:50:27.223Z,94245.00
2022-11-16T01:50:37.313Z,94246.00
2022-11-16T01:50:47.446Z,94242.00
2022-11-16T01:50:57.174Z,94238.00
2022-11-16T01:51:07.296Z,94243.00
2022-11-16T01:51:17.333Z,94245.00
2022-11-16T01:51:27.311Z,94243.00
2022-11-16T01:51:37.543Z,94244.00
2022-11-16T01:51:47.428Z,94245.00
2022-11-16T01:51:57.468Z,94245.00
2022-11-16T01:52:07.220Z,94245.00
2022-11-16T01:52:17.471Z,94243.00
2022-11-16T01:52:27.352Z,94243.00
2022-11-16T01:52:37.200Z,94247.00
2022-11-16T01:52:47.361Z,94247.00
2022-11-16T01:52:57.431Z,94245.00
2022-11-16T01:53:07.458Z,94245.00
2022-11-16T01:53:17.268Z,94243.00
2022-11-16T01:53:27.266Z,94245.00
2022-11-16T01:53:37.200Z,94246.00
2022-11-16T01:53:47.395Z,94245.00
2022-11-16T01:53:57.287Z,94245.00
2022-11-16T01:54:07.314Z,94248.00
2022-11-16T01:54:17.474Z,94244.00
2022-11-16T01:54:27.312Z,94244.00
2022-11-16T01:54:37.456Z,94247.00
2022-11-16T01:54:47.326Z,94244.00
2022-11-16T01:54:57.326Z,94241.00
2022-11-16T01:55:07.382Z,94244.00
2022-11-16T01:55:17.419Z,94244.00
2022-11-16T01:55:27.289Z,94237.00
2022-11-16T01:55:37.369Z,94248.00
2022-11-16T01:55:47.254Z,94243.00
2022-11-16T01:55:57.368Z,94246.00
2022-11-16T01:56:07.317Z,94245.00
2022-11-16T01:56:17.326Z,94243.00
2022-11-16T01:56:27.319Z,94243.00
2022-11-16T01:56:37.285Z,94241.00
2022-11-16T01:56:47.261Z,94240.00
2022-11-16T01:56:57.195Z,94243.00
2022-11-16T01:57:07.363Z,94241.00
2022-11-16T01:57:17.307Z,94240.00
2022-11-16T01:57:27.249Z,94238.00